Time;durP1;ratioP1;P1;durP2;ratioP2;P2;SDS_P1;SDS_P2;PMS_P1;PMS_P2;Temp;Humidity;BMP_temperature;BMP_pressure;BME280_temperature;BME280_humidity;BME280_pressure;Samples;Min_cycle;Max_cycle;Signal;HPM_P1;HPM_P2
2023/02/01 00:01:23;;;;;;;41.67;22.95;;;;;;;;;;5048373;28;20024;-76
2023/02/01 00:03:49;;;;;;;39.28;23.60;;;;;;;;;;5039954;28;20111;-76
2023/02/01 00:06:15;;;;;;;39.08;23.27;;;;;;;;;;5047727;28;20457;-76
2023/02/01 00:08:41;;;;;;;37.70;24.15;;;;;;;;;;5056752;28;20569;-75
2023/02/01 00:11:09;;;;;;;41.63;23.90;;;;;;;;;;5045771;28;20029;-76
2023/02/01 00:13:37;;;;;;;41.20;24.52;;;;;;;;;;5039271;28;20174;-76
2023/02/01 00:16:07;;;;;;;37.10;22.80;;;;;;;;;;5051649;28;20047;-75
2023/02/01 00:18:33;;;;;;;36.15;20.88;;;;;;;;;;5042261;28;20037;-75
2023/02/01 00:20:59;;;;;;;40.38;24.63;;;;;;;;;;5043283;28;20138;-76
2023/02/01 00:23:25;;;;;;;34.55;21.00;;;;;;;;;;5049428;28;20061;-76
2023/02/01 00:25:51;;;;;;;32.17;18.80;;;;;;;;;;5049845;28;20326;-75
2023/02/01 00:28:17;;;;;;;37.00;21.55;;;;;;;;;;5049573;28;20033;-76
2023/02/01 00:30:43;;;;;;;34.58;21.33;;;;;;;;;;5056321;28;20036;-76
2023/02/01 00:33:09;;;;;;;39.97;22.25;;;;;;;;;;5045184;28;20029;-75
2023/02/01 00:35:36;;;;;;;30.95;19.88;;;;;;;;;;5043730;28;20079;-76
2023/02/01 00:38:02;;;;;;;27.15;18.95;;;;;;;;;;5043261;28;20051;-75
2023/02/01 00:40:28;;;;;;;31.08;20.45;;;;;;;;;;5042308;28;20063;-76
2023/02/01 00:42:54;;;;;;;34.70;19.75;;;;;;;;;;5062866;28;20458;-75
2023/02/01 00:45:20;;;;;;;32.47;17.77;;;;;;;;;;5051435;28;20045;-75
2023/02/01 00:47:46;;;;;;;28.65;16.70;;;;;;;;;;5062796;28;20035;-76
2023/02/01 00:50:12;;;;;;;26.55;16.60;;;;;;;;;;5048148;28;20079;-75
2023/02/01 00:52:38;;;;;;;32.78;18.13;;;;;;;;;;5032017;28;20033;-75
2023/02/01 00:55:04;;;;;;;30.10;15.80;;;;;;;;;;5034281;28;20040;-75
2023/02/01 00:57:31;;;;;;;29.65;15.88;;;;;;;;;;5047712;28;20592;-76
2023/02/01 00:59:57;;;;;;;29.15;18.02;;;;;;;;;;5047343;28;20104;-75
2023/02/01 01:02:23;;;;;;;28.65;15.57;;;;;;;;;;5051256;28;20163;-75
2023/02/01 01:04:49;;;;;;;27.98;13.77;;;;;;;;;;5052699;28;20033;-75
2023/02/01 01:07:15;;;;;;;29.33;15.68;;;;;;;;;;5061387;28;20029;-75
2023/02/01 01:09:41;;;;;;;26.92;16.63;;;;;;;;;;5043352;28;20044;-75
2023/02/01 01:12:07;;;;;;;25.33;14.45;;;;;;;;;;5040154;28;20033;-75
2023/02/01 01:14:33;;;;;;;29.33;14.18;;;;;;;;;;5054721;28;20029;-75
2023/02/01 01:16:59;;;;;;;28.25;16.13;;;;;;;;;;5040837;28;20033;-75
2023/02/01 01:19:25;;;;;;;22.55;12.25;;;;;;;;;;5053712;28;20044;-75
2023/02/01 01:21:51;;;;;;;22.45;11.80;;;;;;;;;;5048093;28;20133;-76
2023/02/01 01:24:17;;;;;;;23.90;13.32;;;;;;;;;;5053591;28;20072;-76
2023/02/01 01:26:43;;;;;;;21.33;11.32;;;;;;;;;;5053924;28;20036;-75
2023/02/01 01:29:10;;;;;;;26.00;12.43;;;;;;;;;;5036285;28;20083;-75
2023/02/01 01:31:36;;;;;;;32.15;16.75;;;;;;;;;;5049690;28;20123;-75
2023/02/01 01:34:03;;;;;;;29.75;14.50;;;;;;;;;;5051040;28;20198;-75
2023/02/01 01:36:29;;;;;;;25.38;12.90;;;;;;;;;;5043371;28;20125;-75
2023/02/01 01:38:55;;;;;;;24.83;12.85;;;;;;;;;;5063474;28;20150;-75
2023/02/01 01:41:26;;;;;;;26.20;13.35;;;;;;;;;;5051157;28;20123;-75
2023/02/01 01:44:02;;;;;;;28.02;15.82;;;;;;;;;;5042718;28;20025;-75
2023/02/01 01:46:30;;;;;;;29.35;17.15;;;;;;;;;;5035102;28;20036;-75
2023/02/01 01:49:16;;;;;;;28.05;15.25;;;;;;;;;;5055860;28;20040;-75
2023/02/01 01:51:44;;;;;;;28.13;16.48;;;;;;;;;;5043477;28;20048;-75
2023/02/01 01:54:16;;;;;;;37.47;23.25;;;;;;;;;;5050762;28;20044;-75
2023/02/01 01:56:43;;;;;;;32.85;19.52;;;;;;;;;;5049217;28;20032;-75
2023/02/01 01:59:09;;;;;;;40.05;25.00;;;;;;;;;;5037811;28;20480;-75
2023/02/01 02:01:35;;;;;;;34.70;21.05;;;;;;;;;;5051590;28;20103;-75
2023/02/01 02:04:02;;;;;;;30.50;19.88;;;;;;;;;;5056012;28;20426;-75
2023/02/01 02:06:32;;;;;;;37.75;24.13;;;;;;;;;;5041596;28;20047;-75
2023/02/01 02:08:58;;;;;;;31.73;21.27;;;;;;;;;;5034699;28;20029;-75
2023/02/01 02:11:24;;;;;;;30.58;20.08;;;;;;;;;;5039436;28;20033;-75
2023/02/01 02:13:52;;;;;;;31.25;19.65;;;;;;;;;;5055005;28;20116;-75
2023/02/01 02:16:30;;;;;;;32.58;18.73;;;;;;;;;;5046399;28;20600;-75
2023/02/01 02:19:15;;;;;;;27.52;16.80;;;;;;;;;;5046945;28;20041;-75
2023/02/01 02:22:04;;;;;;;28.00;15.77;;;;;;;;;;5047276;28;20063;-75
2023/02/01 02:24:41;;;;;;;26.65;16.42;;;;;;;;;;5042447;28;20053;-75
2023/02/01 02:27:23;;;;;;;25.98;16.42;;;;;;;;;;5052579;28;20642;-75
2023/02/01 02:30:01;;;;;;;30.38;20.70;;;;;;;;;;5042224;28;20028;-75
2023/02/01 02:32:33;;;;;;;27.48;16.77;;;;;;;;;;5055810;28;20136;-75
2023/02/01 02:35:06;;;;;;;27.90;16.85;;;;;;;;;;5046592;28;20124;-75
2023/02/01 02:37:47;;;;;;;27.75;18.13;;;;;;;;;;5050294;28;20123;-75
2023/02/01 02:40:13;;;;;;;28.13;17.92;;;;;;;;;;5042304;28;20414;-75
2023/02/01 02:48:46;;;;;;;71.53;37.55;;;;;;;;;;5047871;28;20083;-75
2023/02/01 03:05:01;;;;;;;28.92;18.00;;;;;;;;;;5035965;28;20051;-75
2023/02/01 03:07:46;;;;;;;29.13;18.83;;;;;;;;;;5039782;28;20131;-75
2023/02/01 03:10:18;;;;;;;33.05;20.38;;;;;;;;;;5049464;28;20048;-76
2023/02/01 03:12:56;;;;;;;41.60;23.75;;;;;;;;;;5049070;28;20033;-75
2023/02/01 03:15:27;;;;;;;28.90;17.80;;;;;;;;;;5054818;28;20033;-75
2023/02/01 03:17:55;;;;;;;26.30;17.55;;;;;;;;;;5037586;28;20021;-75
2023/02/01 03:20:22;;;;;;;21.42;13.98;;;;;;;;;;5064676;28;20036;-75
2023/02/01 03:22:49;;;;;;;23.42;15.35;;;;;;;;;;5051038;28;20049;-76
2023/02/01 03:25:18;;;;;;;22.55;14.18;;;;;;;;;;5049916;28;20789;-75
2023/02/01 03:27:55;;;;;;;26.20;17.02;;;;;;;;;;5032396;28;20445;-76
2023/02/01 03:30:23;;;;;;;24.92;15.40;;;;;;;;;;5042814;28;20532;-75
2023/02/01 03:33:00;;;;;;;23.95;15.00;;;;;;;;;;5052123;28;20108;-75
2023/02/01 03:35:31;;;;;;;22.77;14.68;;;;;;;;;;5042136;28;20034;-75
2023/02/01 03:38:02;;;;;;;26.98;15.80;;;;;;;;;;5043925;28;20040;-75
2023/02/01 03:40:29;;;;;;;25.23;15.80;;;;;;;;;;5046302;28;20112;-75
2023/02/01 03:42:56;;;;;;;27.00;15.60;;;;;;;;;;5052883;22;20180;-75
2023/02/01 03:45:22;;;;;;;25.20;15.85;;;;;;;;;;5040392;28;20132;-75
2023/02/01 03:47:49;;;;;;;25.45;14.70;;;;;;;;;;5039134;28;20051;-75
2023/02/01 03:50:19;;;;;;;32.30;15.40;;;;;;;;;;5038941;28;20044;-75
2023/02/01 03:52:52;;;;;;;22.13;14.75;;;;;;;;;;5046391;28;20044;-75
2023/02/01 03:55:23;;;;;;;23.63;14.02;;;;;;;;;;5033188;28;20033;-75
2023/02/01 03:57:52;;;;;;;28.25;15.68;;;;;;;;;;5042090;28;20178;-75
2023/02/01 04:00:23;;;;;;;23.48;14.02;;;;;;;;;;5042956;28;20132;-75
2023/02/01 04:02:49;;;;;;;24.08;15.02;;;;;;;;;;5045952;28;20700;-75
2023/02/01 04:05:15;;;;;;;27.90;15.48;;;;;;;;;;5046861;28;20041;-75
2023/02/01 04:07:41;;;;;;;27.55;15.73;;;;;;;;;;5042533;28;20037;-75
2023/02/01 04:10:08;;;;;;;24.67;13.32;;;;;;;;;;5040881;28;20477;-75
2023/02/01 04:12:33;;;;;;;21.02;12.25;;;;;;;;;;5039544;28;20028;-75
2023/02/01 04:14:59;;;;;;;19.27;12.10;;;;;;;;;;5041377;28;20037;-75
2023/02/01 04:17:25;;;;;;;21.90;12.45;;;;;;;;;;5056931;28;20025;-75
2023/02/01 04:19:51;;;;;;;20.13;12.88;;;;;;;;;;5045532;28;20033;-75
2023/02/01 04:22:17;;;;;;;20.25;11.75;;;;;;;;;;5045773;28;20037;-75
2023/02/01 04:24:43;;;;;;;20.00;12.38;;;;;;;;;;5044232;28;20029;-75
2023/02/01 04:27:09;;;;;;;20.60;11.45;;;;;;;;;;5054561;28;20043;-75
2023/02/01 04:29:35;;;;;;;17.60;10.25;;;;;;;;;;5050315;28;20033;-75
2023/02/01 04:32:01;;;;;;;34.58;15.73;;;;;;;;;;5047583;28;20037;-75
2023/02/01 04:34:27;;;;;;;55.65;22.48;;;;;;;;;;5045986;28;20111;-75
2023/02/01 04:36:53;;;;;;;138.13;47.40;;;;;;;;;;5044861;28;20033;-75
2023/02/01 04:39:19;;;;;;;92.15;38.53;;;;;;;;;;5044544;28;20032;-75
2023/02/01 04:41:45;;;;;;;21.77;12.27;;;;;;;;;;5007337;28;1116946;-75
2023/02/01 04:44:14;;;;;;;19.98;10.38;;;;;;;;;;5032735;28;20680;-75
2023/02/01 04:46:40;;;;;;;19.48;10.18;;;;;;;;;;5037210;28;20037;-75
2023/02/01 04:49:06;;;;;;;23.38;12.77;;;;;;;;;;5045284;28;20585;-75
2023/02/01 04:51:32;;;;;;;23.35;13.23;;;;;;;;;;5040426;28;20037;-75
2023/02/01 04:53:58;;;;;;;22.52;14.52;;;;;;;;;;5041114;28;20037;-75
2023/02/01 04:56:24;;;;;;;23.98;14.60;;;;;;;;;;5041974;28;20112;-75
2023/02/01 04:58:50;;;;;;;22.95;12.15;;;;;;;;;;5046954;28;20037;-75
2023/02/01 05:01:16;;;;;;;21.90;12.25;;;;;;;;;;5038751;28;20036;-75
2023/02/01 05:03:42;;;;;;;52.75;32.10;;;;;;;;;;5039457;28;20410;-75
2023/02/01 05:06:08;;;;;;;48.55;29.42;;;;;;;;;;5041851;28;20037;-75
2023/02/01 05:08:34;;;;;;;66.18;28.48;;;;;;;;;;5045422;28;20041;-75
2023/02/01 05:11:02;;;;;;;80.45;31.08;;;;;;;;;;5040526;28;20415;-75
2023/02/01 05:16:13;;;;;;;45.75;19.08;;;;;;;;;;5035967;28;20124;-75
2023/02/01 05:18:39;;;;;;;31.92;14.75;;;;;;;;;;5049820;28;20104;-75
2023/02/01 05:21:05;;;;;;;49.03;21.58;;;;;;;;;;5032505;28;20081;-76
2023/02/01 05:23:31;;;;;;;28.40;14.48;;;;;;;;;;5047884;28;20119;-75
2023/02/01 05:26:01;;;;;;;34.88;16.85;;;;;;;;;;5042430;28;20522;-75
2023/02/01 05:28:27;;;;;;;76.05;32.17;;;;;;;;;;5046808;28;20111;-75
2023/02/01 05:30:53;;;;;;;59.00;24.92;;;;;;;;;;5040949;28;20025;-75
2023/02/01 05:33:19;;;;;;;58.20;26.98;;;;;;;;;;5043385;28;20041;-75
2023/02/01 05:35:45;;;;;;;51.60;24.30;;;;;;;;;;5048918;28;20363;-75
2023/02/01 05:38:11;;;;;;;77.25;34.15;;;;;;;;;;5048812;28;20036;-75
2023/02/01 05:40:37;;;;;;;85.30;36.22;;;;;;;;;;5048364;28;20498;-75
2023/02/01 05:43:03;;;;;;;36.65;20.45;;;;;;;;;;5043278;28;20090;-75
2023/02/01 05:45:29;;;;;;;33.78;18.58;;;;;;;;;;5049119;28;20040;-75
2023/02/01 05:47:55;;;;;;;67.20;32.25;;;;;;;;;;5041701;28;20105;-75
2023/02/01 05:50:21;;;;;;;77.90;34.45;;;;;;;;;;5044093;28;20100;-75
2023/02/01 05:52:47;;;;;;;47.05;21.88;;;;;;;;;;5031905;28;20025;-75
2023/02/01 05:55:14;;;;;;;38.80;18.02;;;;;;;;;;5048757;28;20036;-75
2023/02/01 05:57:39;;;;;;;34.97;17.98;;;;;;;;;;5046226;28;20025;-75
2023/02/01 06:00:06;;;;;;;34.80;16.30;;;;;;;;;;5045769;28;20037;-75
2023/02/01 06:02:32;;;;;;;28.33;14.75;;;;;;;;;;5046383;28;20453;-75
2023/02/01 06:04:58;;;;;;;29.70;15.63;;;;;;;;;;5043948;28;20041;-75
2023/02/01 06:07:24;;;;;;;27.38;14.23;;;;;;;;;;5039447;28;20029;-75
2023/02/01 06:09:50;;;;;;;32.15;19.30;;;;;;;;;;5030042;28;20086;-75
2023/02/01 06:12:16;;;;;;;41.00;23.25;;;;;;;;;;5035723;28;20029;-75
2023/02/01 06:14:43;;;;;;;40.92;23.73;;;;;;;;;;5045056;28;20049;-75
2023/02/01 06:17:09;;;;;;;39.28;22.08;;;;;;;;;;5040981;28;20017;-75
2023/02/01 06:19:35;;;;;;;29.15;16.83;;;;;;;;;;5030571;28;20061;-75
2023/02/01 06:22:01;;;;;;;32.28;17.73;;;;;;;;;;5044839;28;20051;-75
2023/02/01 06:24:27;;;;;;;30.63;16.27;;;;;;;;;;5041679;28;20915;-75
2023/02/01 06:26:53;;;;;;;29.10;17.00;;;;;;;;;;5043971;28;20124;-75
2023/02/01 06:29:19;;;;;;;30.65;16.60;;;;;;;;;;5029759;28;20466;-75
2023/02/01 06:31:45;;;;;;;33.53;16.85;;;;;;;;;;5042801;28;20025;-75
2023/02/01 06:34:11;;;;;;;32.83;16.00;;;;;;;;;;5045184;28;20029;-75
2023/02/01 06:36:37;;;;;;;29.23;15.60;;;;;;;;;;5040180;28;20029;-76
2023/02/01 06:39:03;;;;;;;29.98;16.55;;;;;;;;;;5041934;28;20389;-75
2023/02/01 06:41:29;;;;;;;33.83;17.40;;;;;;;;;;5038653;28;20025;-75
2023/02/01 06:43:55;;;;;;;30.38;17.45;;;;;;;;;;5038097;28;20055;-76
2023/02/01 06:46:21;;;;;;;31.40;17.88;;;;;;;;;;5044729;28;20035;-75
2023/02/01 06:48:49;;;;;;;44.92;22.10;;;;;;;;;;5044334;28;20112;-75
2023/02/01 06:51:28;;;;;;;39.70;22.48;;;;;;;;;;5040368;28;20040;-75
2023/02/01 06:53:54;;;;;;;39.03;23.42;;;;;;;;;;5042469;28;20628;-75
2023/02/01 06:56:20;;;;;;;44.78;25.67;;;;;;;;;;5041232;28;20033;-75
2023/02/01 06:58:47;;;;;;;39.58;22.85;;;;;;;;;;5038049;28;20040;-75
2023/02/01 07:01:13;;;;;;;39.92;21.63;;;;;;;;;;5037816;28;20049;-75
2023/02/01 07:03:39;;;;;;;34.25;20.40;;;;;;;;;;5039117;28;20029;-75
2023/02/01 07:06:06;;;;;;;35.08;21.10;;;;;;;;;;5036649;28;20032;-74
2023/02/01 07:08:33;;;;;;;32.60;18.70;;;;;;;;;;5036589;28;20033;-74
2023/02/01 07:11:09;;;;;;;41.53;21.83;;;;;;;;;;5036565;28;20095;-75
2023/02/01 07:13:36;;;;;;;69.35;34.03;;;;;;;;;;5038774;28;20470;-75
2023/02/01 07:16:03;;;;;;;68.63;36.78;;;;;;;;;;5038759;28;20017;-75
2023/02/01 07:18:29;;;;;;;51.50;29.75;;;;;;;;;;5036975;28;20037;-75
2023/02/01 07:20:56;;;;;;;46.42;25.75;;;;;;;;;;5039537;28;20025;-75
2023/02/01 07:23:22;;;;;;;47.28;25.58;;;;;;;;;;5039898;28;20029;-75
2023/02/01 07:25:48;;;;;;;44.28;24.73;;;;;;;;;;5043458;28;20497;-75
2023/02/01 07:28:14;;;;;;;41.33;24.52;;;;;;;;;;5041153;28;20516;-75
2023/02/01 07:30:41;;;;;;;43.60;23.73;;;;;;;;;;5032261;28;20033;-75
2023/02/01 07:33:07;;;;;;;43.55;26.40;;;;;;;;;;5038285;28;20784;-76
2023/02/01 07:35:33;;;;;;;41.30;26.65;;;;;;;;;;5040764;28;20062;-75
2023/02/01 07:37:59;;;;;;;40.67;25.67;;;;;;;;;;5040490;28;20037;-76
2023/02/01 07:40:28;;;;;;;47.72;30.00;;;;;;;;;;5038746;28;20041;-75
2023/02/01 07:42:57;;;;;;;45.17;26.92;;;;;;;;;;5041091;28;20056;-76
2023/02/01 07:45:23;;;;;;;42.95;28.10;;;;;;;;;;5042954;28;20069;-75
2023/02/01 07:47:51;;;;;;;45.92;28.20;;;;;;;;;;5039108;28;20602;-75
2023/02/01 07:50:18;;;;;;;41.20;26.30;;;;;;;;;;5034241;28;20038;-74
2023/02/01 07:52:43;;;;;;;43.65;25.73;;;;;;;;;;5040970;28;20034;-76
2023/02/01 07:55:10;;;;;;;43.92;25.65;;;;;;;;;;5041317;28;20581;-76
2023/02/01 07:57:36;;;;;;;41.42;26.35;;;;;;;;;;5042023;28;20026;-76
2023/02/01 08:02:47;;;;;;;42.30;25.45;;;;;;;;;;5036238;28;20087;-76
2023/02/01 08:05:13;;;;;;;39.38;22.42;;;;;;;;;;5043752;28;20041;-77
2023/02/01 08:07:39;;;;;;;35.45;19.92;;;;;;;;;;5044524;28;20791;-76
2023/02/01 08:10:10;;;;;;;32.78;18.83;;;;;;;;;;5040407;28;20037;-76
2023/02/01 08:12:36;;;;;;;23.73;12.23;;;;;;;;;;5042654;28;20078;-76
2023/02/01 08:15:02;;;;;;;20.80;10.82;;;;;;;;;;5042540;28;20081;-76
2023/02/01 08:17:29;;;;;;;19.65;8.95;;;;;;;;;;5052002;28;20025;-76
2023/02/01 08:19:55;;;;;;;26.67;13.55;;;;;;;;;;5050987;28;20131;-74
2023/02/01 08:22:21;;;;;;;29.13;14.02;;;;;;;;;;5044167;28;20459;-76
2023/02/01 08:24:50;;;;;;;23.25;10.30;;;;;;;;;;5040335;28;20520;-76
2023/02/01 08:27:16;;;;;;;43.08;23.77;;;;;;;;;;5038929;28;20029;-76
2023/02/01 08:29:42;;;;;;;23.33;11.07;;;;;;;;;;5042366;28;20072;-76
2023/02/01 08:32:08;;;;;;;25.92;14.70;;;;;;;;;;5039125;28;20064;-76
2023/02/01 08:34:34;;;;;;;26.55;15.95;;;;;;;;;;5045585;28;20509;-76
2023/02/01 08:37:00;;;;;;;32.35;17.60;;;;;;;;;;5041048;28;20517;-74
2023/02/01 08:39:27;;;;;;;27.90;17.38;;;;;;;;;;5043272;28;20139;-74
2023/02/01 08:44:38;;;;;;;20.83;13.05;;;;;;;;;;5039142;28;20564;-75
2023/02/01 08:47:04;;;;;;;22.42;11.68;;;;;;;;;;5042637;28;20072;-76
2023/02/01 08:49:30;;;;;;;16.52;9.93;;;;;;;;;;5042814;28;20041;-75
2023/02/01 08:51:56;;;;;;;17.92;10.80;;;;;;;;;;5040647;28;20040;-75
2023/02/01 08:54:22;;;;;;;19.70;9.68;;;;;;;;;;5042001;28;20044;-75
2023/02/01 08:56:48;;;;;;;19.80;10.02;;;;;;;;;;5043607;28;20026;-75
2023/02/01 08:59:14;;;;;;;16.55;9.68;;;;;;;;;;5040483;28;20029;-74
2023/02/01 09:01:40;;;;;;;18.40;10.20;;;;;;;;;;5040246;28;20049;-75
2023/02/01 09:04:06;;;;;;;16.15;9.65;;;;;;;;;;5048160;28;20032;-74
2023/02/01 09:06:32;;;;;;;22.63;11.02;;;;;;;;;;5042719;28;20040;-74
2023/02/01 09:08:58;;;;;;;15.23;9.00;;;;;;;;;;5044164;28;20029;-74
2023/02/01 09:11:25;;;;;;;16.48;8.13;;;;;;;;;;5041408;28;20385;-74
2023/02/01 09:13:51;;;;;;;17.75;8.93;;;;;;;;;;5042824;28;20032;-75
2023/02/01 09:16:17;;;;;;;18.73;10.82;;;;;;;;;;5039004;28;20029;-74
2023/02/01 09:18:43;;;;;;;25.00;12.52;;;;;;;;;;5048469;28;20064;-74
2023/02/01 09:21:09;;;;;;;24.48;12.68;;;;;;;;;;5048622;28;20128;-74
2023/02/01 09:23:35;;;;;;;19.95;10.45;;;;;;;;;;5048769;28;20052;-74
2023/02/01 09:26:02;;;;;;;15.52;8.90;;;;;;;;;;5037149;28;20029;-74
2023/02/01 09:28:28;;;;;;;14.90;7.78;;;;;;;;;;5041976;28;20040;-74
2023/02/01 09:30:58;;;;;;;24.67;12.45;;;;;;;;;;5043976;28;20031;-74
2023/02/01 09:33:25;;;;;;;20.70;10.27;;;;;;;;;;5042916;28;20040;-74
2023/02/01 09:35:55;;;;;;;19.60;10.00;;;;;;;;;;5044978;28;20108;-74
2023/02/01 09:38:22;;;;;;;18.13;9.02;;;;;;;;;;5050545;28;20780;-74
2023/02/01 09:40:48;;;;;;;21.10;10.35;;;;;;;;;;5049001;28;20079;-74
2023/02/01 09:43:14;;;;;;;19.20;10.10;;;;;;;;;;5041146;28;20049;-74
2023/02/01 09:45:58;;;;;;;21.00;10.77;;;;;;;;;;5046594;28;20474;-75
2023/02/01 09:48:28;;;;;;;22.23;10.80;;;;;;;;;;5039618;28;20106;-75
2023/02/01 09:50:56;;;;;;;19.85;10.10;;;;;;;;;;5042513;28;20048;-74
2023/02/01 09:53:22;;;;;;;19.27;8.13;;;;;;;;;;5039502;28;20038;-75
2023/02/01 09:55:52;;;;;;;16.60;7.40;;;;;;;;;;5045412;28;20025;-75
2023/02/01 09:58:36;;;;;;;13.68;7.13;;;;;;;;;;5040224;28;20155;-75
2023/02/01 10:01:04;;;;;;;15.18;8.05;;;;;;;;;;5040705;28;20037;-75
2023/02/01 10:03:32;;;;;;;14.43;6.88;;;;;;;;;;5047790;28;20103;-75
2023/02/01 10:06:10;;;;;;;22.85;8.65;;;;;;;;;;5040272;28;20037;-75
2023/02/01 10:08:36;;;;;;;23.33;10.88;;;;;;;;;;5038292;28;20036;-75
2023/02/01 10:11:12;;;;;;;30.27;12.60;;;;;;;;;;5040249;28;20029;-75
2023/02/01 10:13:47;;;;;;;41.53;15.55;;;;;;;;;;5035714;28;20040;-75
2023/02/01 10:16:13;;;;;;;29.60;16.40;;;;;;;;;;5044407;28;20041;-75
2023/02/01 10:18:39;;;;;;;34.28;17.65;;;;;;;;;;5044704;28;20098;-75
2023/02/01 10:21:11;;;;;;;28.00;15.18;;;;;;;;;;5037487;28;20031;-75
2023/02/01 10:23:37;;;;;;;27.55;13.32;;;;;;;;;;5043078;28;20434;-75
2023/02/01 10:26:20;;;;;;;25.00;10.73;;;;;;;;;;5045824;28;20036;-75
2023/02/01 10:28:54;;;;;;;24.85;10.50;;;;;;;;;;5034944;28;20048;-74
2023/02/01 10:31:23;;;;;;;16.98;9.30;;;;;;;;;;5038479;28;20083;-75
2023/02/01 10:33:51;;;;;;;13.75;7.57;;;;;;;;;;5041454;28;20040;-75
2023/02/01 10:36:21;;;;;;;16.55;7.95;;;;;;;;;;5043735;28;20037;-75
2023/02/01 10:38:48;;;;;;;16.15;7.47;;;;;;;;;;5045427;28;20033;-75
2023/02/01 10:41:15;;;;;;;19.23;9.40;;;;;;;;;;5042281;28;20040;-75
2023/02/01 10:43:42;;;;;;;23.35;10.45;;;;;;;;;;5040603;28;20070;-75
2023/02/01 10:46:08;;;;;;;27.00;12.10;;;;;;;;;;5036122;28;20568;-75
2023/02/01 10:48:35;;;;;;;19.30;9.10;;;;;;;;;;5043507;28;20037;-75
2023/02/01 10:51:02;;;;;;;18.33;8.27;;;;;;;;;;5044611;28;20035;-75
2023/02/01 10:53:39;;;;;;;17.98;7.75;;;;;;;;;;5038973;28;20108;-75
2023/02/01 10:56:09;;;;;;;16.50;8.63;;;;;;;;;;5042670;28;20076;-75
2023/02/01 10:58:37;;;;;;;20.55;10.38;;;;;;;;;;5041392;28;20137;-74
2023/02/01 11:01:07;;;;;;;19.17;9.43;;;;;;;;;;5046358;28;20040;-74
2023/02/01 11:03:35;;;;;;;14.93;7.97;;;;;;;;;;5041428;28;20074;-74
2023/02/01 11:06:10;;;;;;;13.93;7.38;;;;;;;;;;5037440;28;20029;-74
2023/02/01 11:08:43;;;;;;;13.32;7.88;;;;;;;;;;5042050;28;20076;-74
2023/02/01 11:11:11;;;;;;;15.20;7.45;;;;;;;;;;5043741;28;20037;-75
2023/02/01 11:13:38;;;;;;;18.33;7.70;;;;;;;;;;5040260;28;20033;-74
2023/02/01 11:16:05;;;;;;;19.45;10.95;;;;;;;;;;5043137;28;20017;-75
2023/02/01 11:18:38;;;;;;;16.38;10.02;;;;;;;;;;5041804;28;20079;-75
2023/02/01 11:21:08;;;;;;;17.23;10.25;;;;;;;;;;5042819;28;20049;-75
2023/02/01 11:23:39;;;;;;;23.30;9.63;;;;;;;;;;5039540;28;20048;-75
2023/02/01 11:26:11;;;;;;;29.20;13.00;;;;;;;;;;5042573;28;20784;-75
2023/02/01 11:28:38;;;;;;;20.00;11.15;;;;;;;;;;5040223;28;20047;-75
2023/02/01 11:31:06;;;;;;;17.25;10.43;;;;;;;;;;5035548;28;20155;-74
2023/02/01 11:33:34;;;;;;;20.10;10.23;;;;;;;;;;5037800;28;20045;-75
2023/02/01 11:36:06;;;;;;;17.40;10.20;;;;;;;;;;5043906;28;20068;-75
2023/02/01 11:38:33;;;;;;;20.35;12.43;;;;;;;;;;5039882;28;20045;-75
2023/02/01 11:41:15;;;;;;;24.83;11.95;;;;;;;;;;5033999;28;20052;-75
2023/02/01 11:43:52;;;;;;;14.35;8.25;;;;;;;;;;5002983;28;20084;-75
2023/02/01 11:46:24;;;;;;;14.95;8.25;;;;;;;;;;4999155;28;20038;-75
2023/02/01 11:48:51;;;;;;;11.63;6.82;;;;;;;;;;4996736;28;20487;-75
2023/02/01 11:51:35;;;;;;;11.75;6.55;;;;;;;;;;4999324;28;20033;-75
2023/02/01 11:54:11;;;;;;;14.57;6.88;;;;;;;;;;4995216;28;20475;-75
2023/02/01 11:56:38;;;;;;;11.38;7.03;;;;;;;;;;5000214;28;20037;-76
2023/02/01 11:59:04;;;;;;;12.75;7.47;;;;;;;;;;4995948;28;20030;-75
2023/02/01 12:01:48;;;;;;;15.88;8.45;;;;;;;;;;5000872;28;20041;-75
2023/02/01 12:04:14;;;;;;;18.85;10.73;;;;;;;;;;5000714;28;20380;-75
2023/02/01 12:06:43;;;;;;;14.07;6.05;;;;;;;;;;4996668;28;20035;-75
2023/02/01 12:09:29;;;;;;;12.50;6.82;;;;;;;;;;4992127;28;20031;-75
2023/02/01 12:12:00;;;;;;;11.00;6.43;;;;;;;;;;5000705;28;20053;-75
2023/02/01 12:14:37;;;;;;;17.45;6.35;;;;;;;;;;4995712;28;20029;-75
2023/02/01 12:17:32;;;;;;;16.05;7.55;;;;;;;;;;5003469;28;20030;-76
2023/02/01 12:20:17;;;;;;;15.15;7.60;;;;;;;;;;4984645;28;20042;-75
2023/02/01 12:22:43;;;;;;;15.38;7.28;;;;;;;;;;5002645;28;20125;-75
2023/02/01 12:25:17;;;;;;;16.50;9.05;;;;;;;;;;5003614;28;20069;-75
2023/02/01 12:27:52;;;;;;;19.75;11.35;;;;;;;;;;4999642;28;20176;-75
2023/02/01 12:30:34;;;;;;;19.38;10.93;;;;;;;;;;4993389;28;20038;-76
2023/02/01 12:33:09;;;;;;;19.02;10.35;;;;;;;;;;4993963;28;20469;-75
2023/02/01 12:35:54;;;;;;;20.25;9.60;;;;;;;;;;5002294;28;20030;-75
2023/02/01 12:38:28;;;;;;;21.30;9.93;;;;;;;;;;4999575;28;20129;-75
2023/02/01 12:40:55;;;;;;;15.20;8.10;;;;;;;;;;5004018;28;20124;-75
2023/02/01 12:43:26;;;;;;;23.77;12.35;;;;;;;;;;5022620;28;20148;-75
2023/02/01 12:46:07;;;;;;;19.35;9.68;;;;;;;;;;5022106;28;20585;-74
2023/02/01 12:48:40;;;;;;;15.57;7.72;;;;;;;;;;5021258;28;20042;-74
2023/02/01 12:51:12;;;;;;;10.80;5.40;;;;;;;;;;5025110;28;20026;-75
2023/02/01 12:53:43;;;;;;;12.05;5.55;;;;;;;;;;5023349;28;20037;-76
2023/02/01 12:56:13;;;;;;;15.90;5.47;;;;;;;;;;5019821;28;20025;-75
2023/02/01 12:58:47;;;;;;;11.57;5.32;;;;;;;;;;5024582;28;20577;-75
2023/02/01 13:01:17;;;;;;;12.52;4.28;;;;;;;;;;5023582;28;20029;-75
2023/02/01 13:04:05;;;;;;;8.20;3.42;;;;;;;;;;5023130;28;20045;-75
2023/02/01 13:06:52;;;;;;;7.75;3.83;;;;;;;;;;5021341;28;20049;-75
2023/02/01 13:09:27;;;;;;;8.82;4.50;;;;;;;;;;5024462;28;20041;-75
2023/02/01 13:11:54;;;;;;;12.98;4.68;;;;;;;;;;5023575;28;20044;-75
2023/02/01 13:14:37;;;;;;;10.93;4.55;;;;;;;;;;5028714;28;20029;-75
2023/02/01 13:17:04;;;;;;;10.15;5.07;;;;;;;;;;5028293;28;20370;-75
2023/02/01 13:19:46;;;;;;;11.80;4.35;;;;;;;;;;5017952;28;20096;-75
2023/02/01 13:22:33;;;;;;;7.68;3.83;;;;;;;;;;5020981;28;20479;-75
2023/02/01 13:24:59;;;;;;;9.55;3.38;;;;;;;;;;5017511;28;20040;-75
2023/02/01 13:27:27;;;;;;;8.38;3.92;;;;;;;;;;5023503;28;20037;-75
2023/02/01 13:29:53;;;;;;;8.15;3.58;;;;;;;;;;5022544;28;20045;-75
2023/02/01 13:32:25;;;;;;;6.90;3.17;;;;;;;;;;5017950;28;20049;-75
2023/02/01 13:35:09;;;;;;;8.02;3.85;;;;;;;;;;5022668;28;20076;-75
2023/02/01 13:37:45;;;;;;;11.13;4.50;;;;;;;;;;5019871;28;20030;-75
2023/02/01 13:40:29;;;;;;;10.68;5.30;;;;;;;;;;5021269;28;20725;-75
2023/02/01 13:42:57;;;;;;;11.30;5.30;;;;;;;;;;5035095;28;20049;-75
2023/02/01 13:45:34;;;;;;;13.02;5.18;;;;;;;;;;5041835;28;20071;-75
2023/02/01 13:48:02;;;;;;;11.57;4.80;;;;;;;;;;5040739;28;20096;-75
2023/02/01 13:50:40;;;;;;;13.05;5.25;;;;;;;;;;5040443;28;20037;-75
2023/02/01 13:53:06;;;;;;;12.45;5.10;;;;;;;;;;5031097;28;20032;-75
2023/02/01 13:55:34;;;;;;;11.07;5.47;;;;;;;;;;5042760;28;20037;-74
2023/02/01 13:58:14;;;;;;;11.10;4.43;;;;;;;;;;5049298;28;20026;-75
2023/02/01 14:00:42;;;;;;;9.43;4.55;;;;;;;;;;5042812;28;20045;-75
2023/02/01 14:03:11;;;;;;;11.13;4.45;;;;;;;;;;5045317;28;20025;-74
2023/02/01 14:05:37;;;;;;;9.35;3.78;;;;;;;;;;5043498;28;20025;-74
2023/02/01 14:08:09;;;;;;;10.25;4.10;;;;;;;;;;5041707;28;20431;-75
2023/02/01 14:10:54;;;;;;;13.25;5.13;;;;;;;;;;5042927;28;20051;-75
2023/02/01 14:13:28;;;;;;;12.02;5.88;;;;;;;;;;5045464;28;20116;-75
2023/02/01 14:16:04;;;;;;;14.73;5.95;;;;;;;;;;5042231;28;20029;-75
2023/02/01 14:18:36;;;;;;;12.65;4.93;;;;;;;;;;5040510;28;20029;-75
2023/02/01 14:21:21;;;;;;;13.35;5.22;;;;;;;;;;5043079;28;20032;-75
2023/02/01 14:23:53;;;;;;;19.80;6.15;;;;;;;;;;5035775;28;20044;-74
2023/02/01 14:26:20;;;;;;;16.35;6.13;;;;;;;;;;5035505;28;20038;-75
2023/02/01 14:28:50;;;;;;;11.55;4.78;;;;;;;;;;5042479;28;20119;-75
2023/02/01 14:31:19;;;;;;;8.20;3.70;;;;;;;;;;5040637;28;20106;-75
2023/02/01 14:33:46;;;;;;;9.18;3.97;;;;;;;;;;5034206;28;20685;-75
2023/02/01 14:36:13;;;;;;;6.60;2.75;;;;;;;;;;5039125;28;20063;-75
2023/02/01 14:38:40;;;;;;;8.68;2.10;;;;;;;;;;5036607;28;20485;-75
2023/02/01 14:41:17;;;;;;;5.57;1.80;;;;;;;;;;5036886;28;20108;-75
2023/02/01 14:44:12;;;;;;;5.75;1.88;;;;;;;;;;5033784;28;20344;-75
2023/02/01 14:46:57;;;;;;;5.72;1.98;;;;;;;;;;5040068;28;20108;-75
2023/02/01 14:49:24;;;;;;;8.18;2.42;;;;;;;;;;5039723;28;20056;-75
2023/02/01 14:51:51;;;;;;;4.40;2.00;;;;;;;;;;5043516;28;20075;-75
2023/02/01 14:54:18;;;;;;;7.32;2.20;;;;;;;;;;5041516;28;20039;-75
2023/02/01 14:56:45;;;;;;;4.00;1.20;;;;;;;;;;5039730;28;20667;-75
2023/02/01 14:59:16;;;;;;;5.57;1.58;;;;;;;;;;5044329;28;20147;-75
2023/02/01 15:01:49;;;;;;;6.50;1.57;;;;;;;;;;5041898;28;20062;-75